createdAt,value
2023-02-12T00:01:51.850Z,70.37
2023-02-12T00:04:18.447Z,72.12
2023-02-12T00:06:44.871Z,71.47
2023-02-12T00:09:11.337Z,71.94
2023-02-12T00:11:37.863Z,72.11
2023-02-12T00:14:05.598Z,71.83
2023-02-12T00:16:32.147Z,71.34
2023-02-12T00:18:59.292Z,70.45
2023-02-12T00:21:25.898Z,71.01
2023-02-12T00:23:52.384Z,71.48
2023-02-12T00:26:19.717Z,71.02
2023-02-12T00:28:49.157Z,71.04
2023-02-12T00:31:18.012Z,70.57
2023-02-12T00:33:45.034Z,70.88
2023-02-12T00:36:23.843Z,70.66
2023-02-12T00:38:52.024Z,70.94
2023-02-12T00:41:19.241Z,70.89
2023-02-12T00:43:45.791Z,71.62
2023-02-12T00:46:12.305Z,72.11
2023-02-12T00:48:39.145Z,72.20
2023-02-12T00:51:06.029Z,71.40
2023-02-12T00:53:32.908Z,72.25
2023-02-12T00:55:59.452Z,72.15
2023-02-12T00:58:25.972Z,71.25
2023-02-12T01:00:53.285Z,71.51
2023-02-12T01:03:20.130Z,72.35
2023-02-12T01:05:47.025Z,72.56
2023-02-12T01:08:14.358Z,72.60
2023-02-12T01:10:41.359Z,72.96
2023-02-12T01:13:14.047Z,73.33
2023-02-12T01:15:41.345Z,73.41
2023-02-12T01:18:08.325Z,72.88
2023-02-12T01:20:34.901Z,73.15
2023-02-12T01:23:01.657Z,73.09
2023-02-12T01:25:28.133Z,73.70
2023-02-12T01:27:55.257Z,73.16
2023-02-12T01:30:24.136Z,72.47
2023-02-12T01:32:51.290Z,72.41
2023-02-12T01:35:17.868Z,69.17
2023-02-12T01:37:44.517Z,70.25
2023-02-12T01:40:19.501Z,71.09
2023-02-12T01:42:46.102Z,72.22
2023-02-12T01:45:12.675Z,72.97
2023-02-12T01:47:40.432Z,73.03
2023-02-12T01:50:07.906Z,73.34
2023-02-12T01:52:36.315Z,72.61
2023-02-12T01:55:04.328Z,73.07
2023-02-12T01:57:32.108Z,73.74
2023-02-12T02:00:00.500Z,73.20
2023-02-12T02:02:27.632Z,72.86
2023-02-12T02:04:56.284Z,72.49
2023-02-12T02:07:22.785Z,70.22
2023-02-12T02:09:49.877Z,71.74
2023-02-12T02:12:35.102Z,71.31
2023-02-12T02:15:02.286Z,70.98
2023-02-12T02:17:45.256Z,71.87
2023-02-12T02:20:30.868Z,72.75
2023-02-12T02:23:15.647Z,72.61
2023-02-12T02:26:09.820Z,73.04
2023-02-12T02:28:39.386Z,71.95
2023-02-12T02:31:27.390Z,71.64
2023-02-12T02:33:56.468Z,72.13
2023-02-12T02:36:41.427Z,71.38
2023-02-12T02:39:27.108Z,71.05
2023-02-12T02:41:53.549Z,71.96
2023-02-12T02:44:23.470Z,72.42
2023-02-12T02:46:51.679Z,72.41
2023-02-12T02:49:22.869Z,72.89
2023-02-12T02:51:51.072Z,72.78
2023-02-12T02:54:17.531Z,72.52
2023-02-12T02:56:45.994Z,72.21
2023-02-12T02:59:29.153Z,72.84
2023-02-12T03:02:04.856Z,72.03
2023-02-12T03:04:34.401Z,72.23
2023-02-12T03:07:05.181Z,72.48
2023-02-12T03:09:46.946Z,72.97
2023-02-12T03:12:15.323Z,73.50
2023-02-12T03:14:47.449Z,73.51
2023-02-12T03:17:16.988Z,72.96
2023-02-12T03:19:46.714Z,73.96
2023-02-12T03:22:16.518Z,74.14
2023-02-12T03:24:46.306Z,74.60
2023-02-12T03:27:24.936Z,74.87
2023-02-12T03:29:51.844Z,75.64
2023-02-12T03:32:29.404Z,76.11
2023-02-12T03:34:55.871Z,75.30
2023-02-12T03:37:29.268Z,75.58
2023-02-12T03:40:04.967Z,75.45
2023-02-12T03:42:34.265Z,75.15
2023-02-12T03:45:16.016Z,74.31
2023-02-12T03:47:59.963Z,73.87
2023-02-12T03:50:35.558Z,74.04
2023-02-12T03:53:02.452Z,72.00
2023-02-12T03:55:30.130Z,74.02
2023-02-12T03:58:00.836Z,74.99
2023-02-12T04:00:27.674Z,74.83
2023-02-12T04:02:54.443Z,75.85
2023-02-12T04:05:22.071Z,76.06
2023-02-12T04:07:49.368Z,75.73
2023-02-12T04:10:16.346Z,76.18
2023-02-12T04:12:51.769Z,76.93
2023-02-12T04:15:26.203Z,77.52
2023-02-12T04:18:16.125Z,77.21
2023-02-12T04:20:54.983Z,76.91
2023-02-12T04:23:35.407Z,75.80
2023-02-12T04:26:02.393Z,76.25
2023-02-12T04:28:49.171Z,77.72
2023-02-12T04:31:18.683Z,77.69
2023-02-12T04:33:48.771Z,77.31
2023-02-12T04:36:23.122Z,77.61
2023-02-12T04:38:58.651Z,77.78
2023-02-12T04:41:25.931Z,76.49
2023-02-12T04:43:52.442Z,76.94
2023-02-12T04:46:19.015Z,76.81
2023-02-12T04:48:57.905Z,76.87
2023-02-12T04:51:24.399Z,77.21
2023-02-12T04:53:51.079Z,77.64
2023-02-12T04:56:17.782Z,78.39
2023-02-12T04:58:44.336Z,79.99
2023-02-12T05:01:10.947Z,79.23
2023-02-12T05:03:37.808Z,79.48
2023-02-12T05:06:08.494Z,79.02
2023-02-12T05:08:34.989Z,79.69
2023-02-12T05:11:06.216Z,79.02
2023-02-12T05:13:32.844Z,79.47
2023-02-12T05:15:59.579Z,80.00
2023-02-12T05:18:26.213Z,81.04
2023-02-12T05:20:59.536Z,80.27
2023-02-12T05:23:27.601Z,80.08
2023-02-12T05:25:54.401Z,80.22
2023-02-12T05:28:21.087Z,80.56
2023-02-12T05:30:47.738Z,80.24
2023-02-12T05:33:14.260Z,79.65
2023-02-12T05:35:40.754Z,80.76
2023-02-12T05:38:07.338Z,79.80
2023-02-12T05:40:34.582Z,79.91
2023-02-12T05:43:01.162Z,80.14
2023-02-12T05:45:29.197Z,79.50
2023-02-12T05:47:55.853Z,79.28
2023-02-12T05:50:22.397Z,79.41
2023-02-12T05:53:01.787Z,79.50
2023-02-12T05:55:28.609Z,79.94
2023-02-12T05:57:55.111Z,79.56
2023-02-12T06:00:21.852Z,79.88
2023-02-12T06:02:48.346Z,77.94
2023-02-12T06:05:14.828Z,71.49
2023-02-12T06:07:41.359Z,75.59
2023-02-12T06:10:08.295Z,77.68
2023-02-12T06:12:34.770Z,78.82
2023-02-12T06:15:01.211Z,79.12
2023-02-12T06:17:27.639Z,79.27
2023-02-12T06:19:54.100Z,79.74
2023-02-12T06:22:20.545Z,80.24
2023-02-12T06:24:46.987Z,79.67
2023-02-12T06:27:13.496Z,79.48
2023-02-12T06:29:40.120Z,70.41
2023-02-12T06:32:08.477Z,72.24
2023-02-12T06:34:35.037Z,75.52
2023-02-12T06:37:01.501Z,75.85
2023-02-12T06:39:28.176Z,77.65
2023-02-12T06:41:54.717Z,77.62
2023-02-12T06:44:21.278Z,78.57
2023-02-12T06:46:47.825Z,78.85
2023-02-12T06:49:15.031Z,79.69
2023-02-12T06:51:41.560Z,78.64
2023-02-12T06:54:14.877Z,78.35
2023-02-12T06:56:41.438Z,77.99
2023-02-12T06:59:07.942Z,76.97
2023-02-12T07:01:34.432Z,75.42
2023-02-12T07:04:04.932Z,76.20
2023-02-12T07:06:33.413Z,75.72
2023-02-12T07:09:00.097Z,75.27
2023-02-12T07:11:27.836Z,74.88
2023-02-12T07:13:54.336Z,74.70
2023-02-12T07:16:21.294Z,74.10
2023-02-12T07:18:48.270Z,74.68
2023-02-12T07:21:15.474Z,75.46
2023-02-12T07:23:42.525Z,75.05
2023-02-12T07:26:11.368Z,75.26
2023-02-12T07:28:38.244Z,74.46
2023-02-12T07:31:11.603Z,73.01
2023-02-12T07:33:38.889Z,73.22
2023-02-12T07:36:06.672Z,72.74
2023-02-12T07:38:35.980Z,72.28
2023-02-12T07:41:10.162Z,71.88
2023-02-12T07:43:37.105Z,71.20
2023-02-12T07:46:07.747Z,69.18
2023-02-12T07:48:34.228Z,69.25
2023-02-12T07:51:08.221Z,68.21
2023-02-12T07:53:35.337Z,66.29
2023-02-12T07:56:05.478Z,65.16
2023-02-12T07:58:31.918Z,61.41
2023-02-12T08:00:58.389Z,61.23
2023-02-12T08:03:24.829Z,61.78
2023-02-12T08:05:51.273Z,60.99
2023-02-12T08:08:17.773Z,58.56
2023-02-12T08:10:44.187Z,58.99
2023-02-12T08:13:10.670Z,58.11
2023-02-12T08:15:37.169Z,55.53
2023-02-12T08:18:03.626Z,55.01
2023-02-12T08:20:30.121Z,54.35
2023-02-12T08:22:56.557Z,52.48
2023-02-12T08:25:23.015Z,51.45
2023-02-12T08:27:49.439Z,49.78
2023-02-12T08:30:16.068Z,48.29
2023-02-12T08:32:42.500Z,51.88
2023-02-12T08:35:08.929Z,51.39
2023-02-12T08:37:35.379Z,50.67
2023-02-12T08:40:01.808Z,51.22
2023-02-12T08:42:28.235Z,49.78
2023-02-12T08:44:54.713Z,48.10
2023-02-12T08:47:21.171Z,47.94
2023-02-12T08:49:47.664Z,47.18
2023-02-12T08:52:14.116Z,45.57
2023-02-12T08:54:40.601Z,43.81
2023-02-12T08:57:07.038Z,45.30
2023-02-12T08:59:33.528Z,44.09
2023-02-12T09:02:00.692Z,41.88
2023-02-12T09:04:28.252Z,44.31
2023-02-12T09:06:55.442Z,45.63
2023-02-12T09:09:22.051Z,44.81
2023-02-12T09:11:49.357Z,42.89
2023-02-12T09:14:16.844Z,43.38
2023-02-12T09:16:43.728Z,41.67
2023-02-12T09:19:11.996Z,39.04
2023-02-12T09:21:38.462Z,39.03
2023-02-12T09:24:04.998Z,40.11
2023-02-12T09:26:31.508Z,41.87
2023-02-12T09:28:57.997Z,39.68
2023-02-12T09:31:26.617Z,40.54
2023-02-12T09:33:55.360Z,42.67
2023-02-12T09:36:22.319Z,42.40
2023-02-12T09:38:49.664Z,43.01
2023-02-12T09:41:22.286Z,41.55
2023-02-12T09:43:53.595Z,39.37
2023-02-12T09:46:31.884Z,39.80
2023-02-12T09:49:01.538Z,39.44
2023-02-12T09:51:28.781Z,38.38
2023-02-12T09:54:06.387Z,37.79
2023-02-12T09:56:34.339Z,39.16
2023-02-12T09:59:02.857Z,39.25
2023-02-12T10:01:29.933Z,37.67
2023-02-12T10:03:56.767Z,36.04
2023-02-12T10:06:23.216Z,36.07
2023-02-12T10:08:59.274Z,35.79
2023-02-12T10:11:44.203Z,35.51
2023-02-12T10:14:16.577Z,35.72
2023-02-12T10:16:53.513Z,35.02
2023-02-12T10:19:32.232Z,32.59
2023-02-12T10:22:01.669Z,33.64
2023-02-12T10:24:37.265Z,35.25
2023-02-12T10:27:13.030Z,34.03
2023-02-12T10:29:42.365Z,32.20
2023-02-12T10:32:17.374Z,32.55
2023-02-12T10:34:43.947Z,33.17
2023-02-12T10:37:24.827Z,32.98
2023-02-12T10:39:55.075Z,33.13
2023-02-12T10:42:24.581Z,33.21
2023-02-12T10:44:51.041Z,32.44
2023-02-12T10:47:21.600Z,32.64
2023-02-12T10:50:01.759Z,31.84
2023-02-12T10:52:54.792Z,31.96
2023-02-12T10:55:28.925Z,34.36
2023-02-12T10:57:55.982Z,34.41
2023-02-12T11:00:36.309Z,33.92
2023-02-12T11:03:04.707Z,36.32
2023-02-12T11:05:33.769Z,38.25
2023-02-12T11:08:00.694Z,38.10
2023-02-12T11:10:28.627Z,37.35
2023-02-12T11:12:55.563Z,36.22
2023-02-12T11:15:26.317Z,36.41
2023-02-12T11:17:57.600Z,34.99
2023-02-12T11:20:38.440Z,34.77
2023-02-12T11:23:06.563Z,33.91
2023-02-12T11:25:34.642Z,34.49
2023-02-12T11:28:03.405Z,34.33
2023-02-12T11:30:30.028Z,34.89
2023-02-12T11:33:14.561Z,35.55
2023-02-12T11:35:48.993Z,34.20
2023-02-12T11:38:22.635Z,33.41
2023-02-12T11:40:49.960Z,32.47
2023-02-12T11:43:18.780Z,34.80
2023-02-12T11:45:52.091Z,36.24
2023-02-12T11:48:24.282Z,35.76
2023-02-12T11:50:52.269Z,35.72
2023-02-12T11:53:24.833Z,37.59
2023-02-12T11:55:58.769Z,36.24
2023-02-12T11:58:26.152Z,35.98
2023-02-12T12:00:52.547Z,35.16
2023-02-12T12:03:28.525Z,35.10
2023-02-12T12:05:58.821Z,35.92
2023-02-12T12:08:33.352Z,36.10
2023-02-12T12:11:11.376Z,36.11
2023-02-12T12:13:41.433Z,36.34
2023-02-12T12:16:58.980Z,37.95
2023-02-12T12:19:49.897Z,37.28
2023-02-12T12:22:22.986Z,36.55
2023-02-12T12:25:08.346Z,36.55
2023-02-12T12:28:05.435Z,36.39
2023-02-12T12:30:50.583Z,38.66
2023-02-12T12:33:26.375Z,38.80
2023-02-12T12:35:56.165Z,38.01
2023-02-12T12:38:45.059Z,37.80
2023-02-12T12:41:40.826Z,38.20
2023-02-12T12:44:22.292Z,37.02
2023-02-12T12:47:05.082Z,34.96
2023-02-12T12:49:32.163Z,34.72
2023-02-12T12:51:58.577Z,34.25
2023-02-12T12:54:35.804Z,33.25
2023-02-12T12:57:25.478Z,33.01
2023-02-12T12:59:51.947Z,30.96
2023-02-12T13:02:38.306Z,31.60
2023-02-12T13:05:07.678Z,30.75
2023-02-12T13:07:44.928Z,30.15
2023-02-12T13:10:20.678Z,29.64
2023-02-12T13:13:07.696Z,29.79
2023-02-12T13:15:41.119Z,30.24
2023-02-12T13:18:07.574Z,30.55
2023-02-12T13:20:42.739Z,30.12
2023-02-12T13:23:09.151Z,30.45
2023-02-12T13:25:40.385Z,28.92
2023-02-12T13:28:12.518Z,29.42
2023-02-12T13:30:44.594Z,29.34
2023-02-12T13:33:20.596Z,30.08
2023-02-12T13:35:49.732Z,30.04
2023-02-12T13:38:22.748Z,30.78
2023-02-12T13:40:49.857Z,30.07
2023-02-12T13:43:16.320Z,30.38
2023-02-12T13:45:42.719Z,31.07
2023-02-12T13:48:09.136Z,30.22
2023-02-12T13:50:48.177Z,31.12
2023-02-12T13:53:23.491Z,30.22
2023-02-12T13:56:06.928Z,29.84
2023-02-12T13:58:34.836Z,30.11
2023-02-12T14:01:02.386Z,29.95
2023-02-12T14:03:30.051Z,30.16
2023-02-12T14:06:08.780Z,29.41
2023-02-12T14:08:36.849Z,30.05
2023-02-12T14:11:17.698Z,29.75
2023-02-12T14:14:05.262Z,30.10
2023-02-12T14:16:31.721Z,30.77
2023-02-12T14:19:16.728Z,30.64
2023-02-12T14:21:43.361Z,30.19
2023-02-12T14:24:28.578Z,29.65
2023-02-12T14:26:55.394Z,29.81
2023-02-12T14:29:22.137Z,30.03
2023-02-12T14:31:48.642Z,30.59
2023-02-12T14:34:16.527Z,30.58
2023-02-12T14:36:44.816Z,30.73
2023-02-12T14:39:20.286Z,31.52
2023-02-12T14:41:47.389Z,31.13
2023-02-12T14:44:16.827Z,31.36
2023-02-12T14:46:52.624Z,31.38
2023-02-12T14:49:26.917Z,31.06
2023-02-12T14:52:07.523Z,31.70
2023-02-12T14:54:41.358Z,31.12
2023-02-12T14:57:09.624Z,31.81
2023-02-12T14:59:39.843Z,32.15
2023-02-12T15:02:06.780Z,31.86
2023-02-12T15:04:36.733Z,32.06
2023-02-12T15:07:12.979Z,32.51
2023-02-12T15:09:42.560Z,32.94
2023-02-12T15:12:32.679Z,33.09
2023-02-12T15:15:06.351Z,32.95
2023-02-12T15:17:34.919Z,32.82
2023-02-12T15:20:06.041Z,33.23
2023-02-12T15:22:42.142Z,33.20
2023-02-12T15:25:24.602Z,33.30
2023-02-12T15:28:14.104Z,33.20
2023-02-12T15:30:42.455Z,33.74
2023-02-12T15:33:09.086Z,35.13
2023-02-12T15:35:39.820Z,35.80
2023-02-12T15:38:10.754Z,36.64
2023-02-12T15:40:37.283Z,36.95
2023-02-12T15:43:05.648Z,37.92
2023-02-12T15:45:36.373Z,38.33
2023-02-12T15:48:08.878Z,38.43
2023-02-12T15:50:36.705Z,40.67
2023-02-12T15:53:03.621Z,40.26
2023-02-12T15:55:35.951Z,41.35
2023-02-12T15:58:02.478Z,42.32
2023-02-12T16:00:36.156Z,42.74
2023-02-12T16:03:02.607Z,44.86
2023-02-12T16:05:29.722Z,45.72
2023-02-12T16:07:56.431Z,46.66
2023-02-12T16:10:23.269Z,46.01
2023-02-12T16:12:50.460Z,46.73
2023-02-12T16:15:24.737Z,48.17
2023-02-12T16:17:51.279Z,49.22
2023-02-12T16:20:20.603Z,50.19
2023-02-12T16:22:48.275Z,50.29
2023-02-12T16:25:22.727Z,50.01
2023-02-12T16:27:53.666Z,50.87
2023-02-12T16:30:32.252Z,51.63
2023-02-12T16:32:59.057Z,52.37
2023-02-12T16:35:30.528Z,53.51
2023-02-12T16:38:02.912Z,53.05
2023-02-12T16:40:33.805Z,53.57
2023-02-12T16:43:03.965Z,54.40
2023-02-12T16:45:34.712Z,54.55
2023-02-12T16:48:16.282Z,53.26
2023-02-12T16:50:45.963Z,55.20
2023-02-12T16:53:31.648Z,56.13
2023-02-12T16:55:58.854Z,55.33
2023-02-12T16:58:28.636Z,56.63
2023-02-12T17:00:55.668Z,56.75
2023-02-12T17:03:22.527Z,56.26
2023-02-12T17:05:49.405Z,57.30
2023-02-12T17:08:17.764Z,56.50
2023-02-12T17:10:48.284Z,57.29
2023-02-12T17:13:14.903Z,58.04
2023-02-12T17:15:52.603Z,57.75
2023-02-12T17:18:19.661Z,57.42
2023-02-12T17:20:53.216Z,59.02
2023-02-12T17:23:19.801Z,59.76
2023-02-12T17:25:46.376Z,60.99
2023-02-12T17:28:13.014Z,61.14
2023-02-12T17:30:39.494Z,61.11
2023-02-12T17:33:05.992Z,61.03
2023-02-12T17:35:32.458Z,60.56
2023-02-12T17:37:59.212Z,60.87
2023-02-12T17:40:25.729Z,61.55
2023-02-12T17:42:52.152Z,62.03
2023-02-12T17:45:19.067Z,62.36
2023-02-12T17:47:45.622Z,62.61
2023-02-12T17:50:13.766Z,63.63
2023-02-12T17:52:40.421Z,63.84
2023-02-12T17:55:07.412Z,63.47
2023-02-12T17:57:34.114Z,63.95
2023-02-12T18:00:00.617Z,64.86
2023-02-12T18:02:27.138Z,64.58
2023-02-12T18:04:53.626Z,64.96
2023-02-12T18:07:20.119Z,64.70
2023-02-12T18:09:46.557Z,64.27
2023-02-12T18:12:13.019Z,64.81
2023-02-12T18:14:39.640Z,66.33
2023-02-12T18:17:06.126Z,66.53
2023-02-12T18:19:32.701Z,67.19
2023-02-12T18:21:59.207Z,68.16
2023-02-12T18:24:25.687Z,68.27
2023-02-12T18:26:52.335Z,69.26
2023-02-12T18:29:18.900Z,69.51
2023-02-12T18:31:45.561Z,69.63
2023-02-12T18:34:12.075Z,69.58
2023-02-12T18:36:38.548Z,70.17
2023-02-12T18:39:04.999Z,69.99
2023-02-12T18:41:31.848Z,70.54
2023-02-12T18:43:58.699Z,70.41
2023-02-12T18:46:26.748Z,70.71
2023-02-12T18:48:53.992Z,70.57
2023-02-12T18:51:22.453Z,70.87
2023-02-12T18:53:54.144Z,70.85
2023-02-12T18:56:20.686Z,70.93
2023-02-12T18:58:47.122Z,71.59
2023-02-12T19:01:14.954Z,72.35
2023-02-12T19:03:41.522Z,72.82
2023-02-12T19:06:08.088Z,73.23
2023-02-12T19:08:34.704Z,74.00
2023-02-12T19:11:01.189Z,73.73
2023-02-12T19:13:27.732Z,75.56
2023-02-12T19:15:54.547Z,75.27
2023-02-12T19:18:21.068Z,76.71
2023-02-12T19:20:47.544Z,75.76
2023-02-12T19:23:13.999Z,75.19
2023-02-12T19:25:42.953Z,75.83
2023-02-12T19:28:10.097Z,74.47
2023-02-12T19:30:37.101Z,75.11
2023-02-12T19:33:03.749Z,75.11
2023-02-12T19:35:30.163Z,74.32
2023-02-12T19:37:56.634Z,74.91
2023-02-12T19:40:23.145Z,74.55
2023-02-12T19:42:49.677Z,75.01
2023-02-12T19:45:16.248Z,74.40
2023-02-12T19:47:42.810Z,74.67
2023-02-12T19:50:09.548Z,74.66
2023-02-12T19:52:36.380Z,75.18
2023-02-12T19:55:03.009Z,75.40
2023-02-12T19:57:29.510Z,74.86
2023-02-12T19:59:55.943Z,76.21
2023-02-12T20:02:22.688Z,75.98
2023-02-12T20:04:49.165Z,76.68
2023-02-12T20:07:15.600Z,77.59
2023-02-12T20:09:42.152Z,77.29
2023-02-12T20:12:08.633Z,76.82
2023-02-12T20:14:35.605Z,78.02
2023-02-12T20:17:02.130Z,78.13
2023-02-12T20:19:29.960Z,77.83
2023-02-12T20:21:57.634Z,78.34
2023-02-12T20:24:25.676Z,79.24
2023-02-12T20:26:52.449Z,78.63
2023-02-12T20:29:18.991Z,79.11
2023-02-12T20:31:45.697Z,78.21
2023-02-12T20:34:14.808Z,78.48
2023-02-12T20:36:42.560Z,79.73
2023-02-12T20:39:10.602Z,79.96
2023-02-12T20:41:37.371Z,79.60
2023-02-12T20:44:08.348Z,80.56
2023-02-12T20:46:39.462Z,80.21
2023-02-12T20:49:06.382Z,80.21
2023-02-12T20:51:33.181Z,80.10
2023-02-12T20:54:01.141Z,80.15
2023-02-12T20:56:28.955Z,81.38
2023-02-12T20:58:55.668Z,81.98
2023-02-12T21:01:26.599Z,81.27
2023-02-12T21:03:53.702Z,82.93
2023-02-12T21:06:20.839Z,82.15
2023-02-12T21:08:47.697Z,82.61
2023-02-12T21:11:16.266Z,84.57
2023-02-12T21:13:50.422Z,83.29
2023-02-12T21:16:25.600Z,83.03
2023-02-12T21:18:52.540Z,82.49
2023-02-12T21:21:21.478Z,82.81
2023-02-12T21:23:48.651Z,83.00
2023-02-12T21:26:18.346Z,83.46
2023-02-12T21:28:45.534Z,83.57
2023-02-12T21:31:13.418Z,83.43
2023-02-12T21:33:40.690Z,83.10
2023-02-12T21:36:08.663Z,83.36
2023-02-12T21:38:37.859Z,84.64
2023-02-12T21:41:08.476Z,83.98
2023-02-12T21:43:35.580Z,84.01
2023-02-12T21:46:02.253Z,84.01
2023-02-12T21:48:28.912Z,84.42
2023-02-12T21:50:55.791Z,84.18
2023-02-12T21:53:22.578Z,83.59
2023-02-12T21:55:49.306Z,84.17
2023-02-12T21:58:16.143Z,83.77
2023-02-12T22:00:42.721Z,83.96
2023-02-12T22:03:09.256Z,84.19
2023-02-12T22:05:35.688Z,84.21
2023-02-12T22:08:02.209Z,84.27
2023-02-12T22:10:28.711Z,84.99
2023-02-12T22:12:55.249Z,84.28
2023-02-12T22:15:22.004Z,85.43
2023-02-12T22:17:48.488Z,85.42
2023-02-12T22:20:14.988Z,85.84
2023-02-12T22:22:41.477Z,85.76
2023-02-12T22:25:08.181Z,85.46
2023-02-12T22:27:34.824Z,85.28
2023-02-12T22:30:01.359Z,85.10
2023-02-12T22:32:27.916Z,85.37
2023-02-12T22:34:54.521Z,85.49
2023-02-12T22:37:21.265Z,85.94
2023-02-12T22:39:47.741Z,85.67
2023-02-12T22:42:14.516Z,85.52
2023-02-12T22:44:40.956Z,85.53
2023-02-12T22:47:07.414Z,85.21
2023-02-12T22:49:33.859Z,85.39
2023-02-12T22:52:00.432Z,84.56
2023-02-12T22:54:26.923Z,84.99
2023-02-12T22:56:53.389Z,85.54
2023-02-12T22:59:19.829Z,84.72
2023-02-12T23:01:46.302Z,84.61
2023-02-12T23:04:16.797Z,85.54
2023-02-12T23:06:43.437Z,86.00
2023-02-12T23:09:12.076Z,85.66
2023-02-12T23:11:39.419Z,84.86
2023-02-12T23:14:05.996Z,85.11
2023-02-12T23:16:32.570Z,85.07
2023-02-12T23:19:00.415Z,86.23
2023-02-12T23:21:28.116Z,86.61
2023-02-12T23:23:55.135Z,86.27
2023-02-12T23:26:21.777Z,86.29
2023-02-12T23:28:48.561Z,86.20
2023-02-12T23:31:15.124Z,86.26
2023-02-12T23:33:41.652Z,87.29
2023-02-12T23:36:08.320Z,87.09
2023-02-12T23:38:34.784Z,86.63
2023-02-12T23:41:01.284Z,86.00
2023-02-12T23:43:27.797Z,86.57
2023-02-12T23:45:54.372Z,86.78
2023-02-12T23:48:20.859Z,86.67
2023-02-12T23:50:49.706Z,86.81
2023-02-12T23:53:17.702Z,86.65
2023-02-12T23:55:44.361Z,86.26
2023-02-12T23:58:10.923Z,86.91
